Time;durP1;ratioP1;P1;durP2;ratioP2;P2;SDS_P1;SDS_P2;PMS_P1;PMS_P2;Temp;Humidity;BMP_temperature;BMP_pressure;BME280_temperature;BME280_humidity;BME280_pressure;Samples;Min_cycle;Max_cycle;Signal;HPM_P1;HPM_P2
2023/06/24 00:00:31;;;;;;;4.78;3.70;;;;;;;24.18;85.27;99652.66;4838139;29;20524;-83
2023/06/24 00:03:17;;;;;;;6.22;3.80;;;;;;;24.01;86.61;99648.34;4826744;29;20076;-83
2023/06/24 00:06:03;;;;;;;4.70;3.53;;;;;;;23.92;87.22;99641.88;4836503;29;20049;-82
2023/06/24 00:08:48;;;;;;;5.03;3.47;;;;;;;24.06;87.14;99643.00;4826029;29;20473;-83
2023/06/24 00:11:32;;;;;;;3.92;3.17;;;;;;;23.73;88.43;99641.63;4835653;29;20045;-82
2023/06/24 00:14:16;;;;;;;5.95;3.28;;;;;;;23.96;88.49;99640.28;4838933;29;20073;-84
2023/06/24 00:17:00;;;;;;;3.63;3.10;;;;;;;24.01;88.81;99636.78;4837248;29;20110;-82
2023/06/24 00:19:47;;;;;;;5.03;3.17;;;;;;;24.12;88.79;99627.72;4825920;29;20098;-81
2023/06/24 00:22:32;;;;;;;6.38;3.42;;;;;;;23.94;89.44;99623.66;4836848;29;20049;-83
2023/06/24 00:25:18;;;;;;;5.30;3.17;;;;;;;24.15;89.07;99620.97;4832315;29;20421;-83
2023/06/24 00:28:03;;;;;;;5.25;3.47;;;;;;;24.03;89.57;99624.75;4835574;29;20098;-83
2023/06/24 00:30:47;;;;;;;5.50;3.30;;;;;;;24.11;89.79;99610.00;4836791;29;20142;-81
2023/06/24 00:33:38;;;;;;;4.20;3.03;;;;;;;24.35;89.34;99626.31;4824801;29;20045;-82
2023/06/24 00:36:21;;;;;;;4.85;2.97;;;;;;;24.25;89.29;99623.66;4839053;29;20549;-81
2023/06/24 00:39:06;;;;;;;4.07;3.63;;;;;;;24.34;89.75;99635.44;4825939;29;20170;-79
2023/06/24 00:41:50;;;;;;;5.43;3.25;;;;;;;24.44;89.64;99631.13;4835801;29;20110;-80
2023/06/24 00:44:34;;;;;;;5.53;3.20;;;;;;;24.45;89.96;99638.09;4823285;29;20048;-82
2023/06/24 00:47:18;;;;;;;4.07;2.95;;;;;;;24.40;90.11;99638.91;4837172;29;20431;-81
2023/06/24 00:50:02;;;;;;;3.78;3.13;;;;;;;24.58;89.95;99644.75;4836465;29;20548;-81
2023/06/24 00:52:48;;;;;;;3.63;2.92;;;;;;;24.71;89.79;99648.75;4825252;29;20048;-82
2023/06/24 00:55:32;;;;;;;4.50;2.75;;;;;;;24.72;89.78;99642.31;4839064;29;20102;-80
2023/06/24 00:58:20;;;;;;;4.20;3.03;;;;;;;24.80;89.50;99631.81;4838902;29;20048;-80
2023/06/24 01:01:05;;;;;;;3.60;3.17;;;;;;;24.72;89.49;99634.25;4835957;29;20053;-80
2023/06/24 01:03:49;;;;;;;3.20;2.90;;;;;;;24.72;89.58;99628.88;4836095;29;20053;-80
2023/06/24 01:06:36;;;;;;;3.53;3.03;;;;;;;24.51;90.33;99639.69;4837799;29;20110;-80
2023/06/24 01:09:20;;;;;;;3.90;2.80;;;;;;;24.60;90.34;99631.88;4838330;29;20413;-79
2023/06/24 01:12:06;;;;;;;3.63;3.22;;;;;;;24.45;91.19;99630.06;4824269;29;20049;-79
2023/06/24 01:14:50;;;;;;;4.75;3.00;;;;;;;24.85;90.45;99617.59;4838854;29;20102;-78
2023/06/24 01:17:49;;;;;;;5.40;3.10;;;;;;;24.65;90.56;99623.78;4823340;29;20081;-80
2023/06/24 01:20:47;;;;;;;4.88;3.28;;;;;;;24.43;91.81;99619.56;4839290;29;20041;-80
2023/06/24 01:23:59;;;;;;;3.40;3.10;;;;;;;24.65;91.07;99629.97;4835450;29;20165;-80
2023/06/24 01:27:32;;;;;;;4.13;3.10;;;;;;;24.71;91.11;99630.78;4823821;29;20085;-80
2023/06/24 01:30:51;;;;;;;5.15;3.20;;;;;;;24.53;91.89;99622.25;4772562;29;20053;-80
2023/06/24 01:33:49;;;;;;;3.65;2.95;;;;;;;24.54;91.78;99625.72;4838298;29;20081;-81
2023/06/24 01:36:37;;;;;;;4.20;3.25;;;;;;;24.67;91.87;99611.72;4839011;29;20084;-80
2023/06/24 01:39:25;;;;;;;4.50;3.25;;;;;;;24.57;92.46;99622.50;4839164;29;20081;-81
2023/06/24 01:42:12;;;;;;;5.13;3.13;;;;;;;24.60;92.10;99616.59;4838802;29;20416;-82
2023/06/24 01:44:58;;;;;;;4.78;3.22;;;;;;;24.48;92.66;99629.50;4823777;29;20053;-80
2023/06/24 01:47:47;;;;;;;4.80;3.13;;;;;;;24.24;93.67;99622.06;4836401;29;20106;-81
2023/06/24 01:50:33;;;;;;;4.38;3.40;;;;;;;24.12;94.26;99630.38;4825048;29;20049;-82
2023/06/24 01:53:19;;;;;;;4.32;3.55;;;;;;;24.03;94.61;99630.13;4837778;29;20519;-82
2023/06/24 01:56:05;;;;;;;4.60;3.22;;;;;;;24.01;95.07;99634.94;4838233;29;20080;-82
2023/06/24 01:58:53;;;;;;;4.80;3.25;;;;;;;24.19;95.28;99633.59;4827322;29;20053;-81
2023/06/24 02:01:39;;;;;;;5.18;3.20;;;;;;;24.15;95.51;99643.25;4842498;29;20461;-83
2023/06/24 02:04:24;;;;;;;5.05;3.40;;;;;;;23.86;97.39;99651.00;4841375;29;20037;-81
2023/06/24 02:07:09;;;;;;;4.10;3.35;;;;;;;23.99;98.11;99639.75;4841300;29;20068;-81
2023/06/24 02:09:54;;;;;;;5.85;3.65;;;;;;;23.93;98.22;99633.59;4827804;29;20057;-81
2023/06/24 02:12:40;;;;;;;3.58;3.25;;;;;;;23.99;97.81;99638.94;4841373;29;20090;-81
2023/06/24 02:15:28;;;;;;;5.13;3.58;;;;;;;23.72;99.14;99630.09;4825193;29;20068;-82
2023/06/24 02:18:15;;;;;;;4.97;3.72;;;;;;;23.58;98.93;99629.00;4842342;29;20058;-81
2023/06/24 02:21:01;;;;;;;6.22;4.00;;;;;;;23.51;99.89;99635.44;4841700;29;20094;-82
2023/06/24 02:23:47;;;;;;;5.70;3.45;;;;;;;23.67;99.79;99635.47;4828248;29;20531;-81
2023/06/24 02:26:32;;;;;;;7.80;4.25;;;;;;;23.74;99.69;99627.16;4840980;29;20517;-82
2023/06/24 02:29:17;;;;;;;4.47;3.80;;;;;;;23.73;99.77;99623.66;4839318;29;20102;-81
2023/06/24 02:32:01;;;;;;;6.88;4.28;;;;;;;23.81;99.46;99628.50;4841939;29;20163;-82
2023/06/24 02:34:46;;;;;;;6.53;3.70;;;;;;;23.92;99.25;99623.13;4837966;29;20540;-82
2023/06/24 02:37:30;;;;;;;5.03;3.72;;;;;;;23.95;98.96;99622.59;4841866;29;20524;-82
2023/06/24 02:40:14;;;;;;;5.65;3.95;;;;;;;23.92;98.61;99607.84;4841388;29;20052;-81
2023/06/24 02:43:00;;;;;;;5.35;3.85;;;;;;;23.95;98.55;99609.19;4826636;29;20129;-81
2023/06/24 02:45:47;;;;;;;4.28;3.63;;;;;;;23.76;98.99;99614.28;4835892;29;20126;-81
2023/06/24 02:48:34;;;;;;;5.53;3.70;;;;;;;23.85;98.75;99612.66;4840183;29;20040;-81
2023/06/24 02:51:20;;;;;;;7.15;3.65;;;;;;;23.65;99.92;99618.84;4841079;29;20535;-80
2023/06/24 02:54:04;;;;;;;8.15;4.43;;;;;;;23.72;100.00;99614.00;4841621;29;20049;-81
2023/06/24 02:56:49;;;;;;;5.90;4.03;;;;;;;23.78;100.00;99614.81;4823154;29;20095;-80
2023/06/24 02:59:33;;;;;;;5.70;3.80;;;;;;;23.82;100.00;99606.00;4826217;29;20063;-80
2023/06/24 03:02:18;;;;;;;7.88;4.00;;;;;;;23.81;100.00;99607.06;4826718;29;20434;-80
2023/06/24 03:05:02;;;;;;;5.57;4.00;;;;;;;23.96;100.00;99606.25;4841076;29;20064;-80
2023/06/24 03:07:47;;;;;;;5.68;4.22;;;;;;;24.10;100.00;99600.34;4840566;29;20129;-81
2023/06/24 03:10:31;;;;;;;6.18;4.28;;;;;;;24.12;99.89;99595.53;4823399;29;20048;-81
2023/06/24 03:13:15;;;;;;;5.38;3.83;;;;;;;23.76;100.00;99599.00;4823452;29;20045;-80
2023/06/24 03:15:59;;;;;;;8.07;4.20;;;;;;;23.78;100.00;99598.75;4839593;29;20515;-80
2023/06/24 03:18:43;;;;;;;6.15;3.92;;;;;;;23.60;100.00;99600.88;4835636;29;20135;-81
2023/06/24 03:21:28;;;;;;;5.30;4.40;;;;;;;23.66;100.00;99596.34;4837686;29;20155;-80
2023/06/24 03:24:12;;;;;;;8.65;4.97;;;;;;;23.49;100.00;99584.00;4826666;29;20058;-80
2023/06/24 03:26:56;;;;;;;4.40;4.00;;;;;;;23.73;100.00;99588.81;4840982;29;20129;-80
2023/06/24 03:29:40;;;;;;;6.32;4.60;;;;;;;23.62;100.00;99587.22;4825009;29;20527;-80
2023/06/24 03:32:24;;;;;;;7.32;4.60;;;;;;;23.44;100.00;99586.69;4840542;29;20080;-80
2023/06/24 03:35:08;;;;;;;8.02;4.60;;;;;;;23.79;100.00;99582.41;4839434;29;20527;-79
2023/06/24 03:37:53;;;;;;;6.63;4.80;;;;;;;23.74;100.00;99585.06;4840338;29;20117;-82
2023/06/24 03:40:37;;;;;;;5.07;4.43;;;;;;;23.73;100.00;99588.81;4839874;29;20097;-83
2023/06/24 03:43:21;;;;;;;6.43;4.55;;;;;;;23.89;100.00;99591.50;4825909;29;20472;-82
2023/06/24 03:46:05;;;;;;;8.50;5.00;;;;;;;23.98;100.00;99594.44;4840473;29;20037;-81
2023/06/24 03:48:52;;;;;;;5.90;5.35;;;;;;;23.84;100.00;99605.69;4827280;29;20057;-81
2023/06/24 03:51:36;;;;;;;5.55;5.03;;;;;;;23.69;100.00;99603.84;4834419;29;20041;-84
2023/06/24 03:54:20;;;;;;;7.60;5.60;;;;;;;23.66;100.00;99599.00;4839660;29;20201;-84
2023/06/24 03:57:06;;;;;;;7.15;5.88;;;;;;;23.76;100.00;99604.38;4838629;29;20090;-84
2023/06/24 03:59:50;;;;;;;7.53;5.88;;;;;;;23.60;100.00;99594.75;4835403;29;20096;-84
2023/06/24 04:02:34;;;;;;;9.65;5.95;;;;;;;23.68;100.00;99591.50;4837124;29;20052;-85
2023/06/24 04:05:18;;;;;;;8.55;5.72;;;;;;;23.76;100.00;99599.00;4837291;29;20556;-83
2023/06/24 04:08:05;;;;;;;6.45;5.22;;;;;;;23.88;100.00;99585.34;4840233;29;20049;-83
2023/06/24 04:10:49;;;;;;;6.70;5.22;;;;;;;23.80;100.00;99589.38;4839162;29;20141;-85
2023/06/24 04:13:33;;;;;;;8.35;5.03;;;;;;;23.95;100.00;99598.44;4826821;29;20185;-83
2023/06/24 04:16:17;;;;;;;6.82;4.63;;;;;;;24.11;100.00;99593.91;4839681;29;20102;-82
2023/06/24 04:19:01;;;;;;;6.80;4.90;;;;;;;24.19;100.00;99600.63;4823385;29;20123;-82
2023/06/24 04:21:46;;;;;;;5.90;4.25;;;;;;;24.33;100.00;99587.44;4840072;29;20421;-84
2023/06/24 04:24:31;;;;;;;6.10;4.68;;;;;;;24.30;100.00;99591.44;4839277;29;20062;-85
2023/06/24 04:27:15;;;;;;;5.72;4.10;;;;;;;24.13;100.00;99580.22;4839787;29;20530;-83
2023/06/24 04:30:02;;;;;;;4.95;4.32;;;;;;;24.35;100.00;99587.97;4837721;29;20109;-83
2023/06/24 04:32:46;;;;;;;5.43;4.25;;;;;;;24.43;100.00;99567.81;4838980;29;20569;-84
2023/06/24 04:35:31;;;;;;;6.97;4.53;;;;;;;24.35;100.00;99577.22;4839041;29;20084;-83
2023/06/24 04:38:18;;;;;;;6.10;4.15;;;;;;;24.34;100.00;99576.41;4837943;29;20113;-82
2023/06/24 04:41:02;;;;;;;5.95;3.88;;;;;;;24.57;100.00;99582.25;4838978;29;20049;-84
2023/06/24 04:43:46;;;;;;;7.82;4.80;;;;;;;24.78;100.00;99590.25;4839162;29;20105;-83
2023/06/24 04:46:30;;;;;;;5.82;4.18;;;;;;;24.68;100.00;99585.69;4839775;29;20177;-82
2023/06/24 04:49:14;;;;;;;8.57;3.85;;;;;;;25.01;100.00;99593.34;4836191;29;20508;-83
2023/06/24 04:52:02;;;;;;;8.10;4.68;;;;;;;25.12;100.00;99592.19;4839760;29;20162;-82
2023/06/24 04:54:46;;;;;;;5.40;4.25;;;;;;;25.09;100.00;99600.81;4839526;29;20037;-81
2023/06/24 04:57:32;;;;;;;5.30;4.10;;;;;;;25.38;100.00;99597.41;4824084;29;20412;-82
2023/06/24 05:00:16;;;;;;;6.80;4.18;;;;;;;25.31;100.00;99586.16;4839534;29;20571;-81
2023/06/24 05:03:00;;;;;;;6.97;4.20;;;;;;;25.16;100.00;99593.25;4838612;29;20117;-82
2023/06/24 05:05:44;;;;;;;5.25;4.72;;;;;;;25.08;100.00;99608.06;4836836;29;20189;-83
2023/06/24 05:08:28;;;;;;;4.63;3.83;;;;;;;24.99;100.00;99606.25;4835937;29;20150;-82
2023/06/24 05:11:12;;;;;;;7.60;4.35;;;;;;;25.00;100.00;99610.53;4835846;29;20045;-82
2023/06/24 05:13:57;;;;;;;5.95;4.65;;;;;;;25.29;99.87;99616.00;4839628;29;20401;-82
2023/06/24 05:16:42;;;;;;;5.72;4.07;;;;;;;25.40;98.83;99608.69;4837036;29;20569;-82
2023/06/24 05:19:26;;;;;;;4.47;4.03;;;;;;;25.53;98.67;99602.69;4838178;29;20041;-82
2023/06/24 05:22:09;;;;;;;4.72;4.03;;;;;;;25.76;97.54;99603.06;4836422;29;20048;-83
2023/06/24 05:24:54;;;;;;;6.03;4.25;;;;;;;25.52;96.99;99601.09;4838116;29;20468;-83
2023/06/24 05:27:38;;;;;;;4.78;4.30;;;;;;;25.35;98.42;99608.69;4823360;29;20065;-82
2023/06/24 05:30:22;;;;;;;7.28;4.60;;;;;;;25.47;97.83;99608.38;4836539;29;20052;-83
2023/06/24 05:33:06;;;;;;;6.32;4.28;;;;;;;25.36;98.77;99611.13;4828295;29;20091;-82
2023/06/24 05:35:50;;;;;;;5.45;4.95;;;;;;;25.31;98.63;99615.72;4843316;29;20101;-84
2023/06/24 05:38:34;;;;;;;6.40;5.13;;;;;;;25.46;98.21;99610.25;4843219;29;20097;-83
2023/06/24 05:41:19;;;;;;;7.38;4.78;;;;;;;25.18;99.06;99615.28;4839380;29;20568;-84
2023/06/24 05:44:04;;;;;;;6.47;4.90;;;;;;;25.54;98.64;99616.94;4840770;29;20504;-86
2023/06/24 05:46:51;;;;;;;9.52;5.40;;;;;;;25.58;98.67;99611.81;4822237;29;20098;-82
2023/06/24 05:49:35;;;;;;;6.07;5.15;;;;;;;25.20;99.25;99607.75;4826038;29;20074;-84
2023/06/24 05:52:19;;;;;;;6.90;5.03;;;;;;;25.32;98.50;99609.25;4841750;29;20397;-81
2023/06/24 05:55:04;;;;;;;6.95;5.80;;;;;;;24.94;98.88;99612.44;4841967;29;20053;-84
2023/06/24 05:57:48;;;;;;;8.73;5.00;;;;;;;25.21;98.90;99622.78;4822967;29;20110;-82
2023/06/24 06:00:32;;;;;;;7.45;5.28;;;;;;;25.57;98.42;99632.50;4837899;29;20091;-82
2023/06/24 06:03:16;;;;;;;6.80;5.20;;;;;;;25.64;98.41;99621.44;4838941;29;20037;-81
2023/06/24 06:06:00;;;;;;;8.57;5.53;;;;;;;25.74;97.36;99626.72;4839083;29;20782;-82
2023/06/24 06:08:45;;;;;;;5.75;5.13;;;;;;;25.86;97.13;99636.31;4837896;29;20510;-78
2023/06/24 06:11:29;;;;;;;9.18;5.80;;;;;;;25.95;96.90;99640.00;4821418;29;20057;-79
2023/06/24 06:14:14;;;;;;;5.85;5.03;;;;;;;26.14;95.49;99631.19;4834836;29;20561;-83
2023/06/24 06:16:58;;;;;;;5.72;5.03;;;;;;;26.38;94.87;99642.03;4837710;29;20045;-81
2023/06/24 06:19:42;;;;;;;8.15;5.60;;;;;;;26.29;95.11;99647.22;4837154;29;20044;-80
2023/06/24 06:22:26;;;;;;;9.15;5.97;;;;;;;26.55;94.33;99649.66;4838876;29;20514;-82
2023/06/24 06:25:10;;;;;;;8.32;5.90;;;;;;;26.83;93.84;99649.88;4834914;29;20745;-79
2023/06/24 06:27:54;;;;;;;9.07;5.47;;;;;;;26.89;93.23;99637.97;4837401;29;20099;-82
2023/06/24 06:30:38;;;;;;;6.72;5.03;;;;;;;26.76;92.90;99646.72;4838100;29;20052;-84
2023/06/24 06:33:23;;;;;;;6.70;5.28;;;;;;;26.94;92.86;99651.38;4823346;29;20083;-80
2023/06/24 06:36:07;;;;;;;9.07;5.65;;;;;;;26.52;93.02;99651.03;4832790;29;20065;-82
2023/06/24 06:38:51;;;;;;;7.40;5.38;;;;;;;26.97;91.60;99650.00;4818025;29;20053;-81
2023/06/24 06:41:35;;;;;;;8.45;5.40;;;;;;;26.66;91.77;99642.28;4821262;29;20813;-83
2023/06/24 06:44:19;;;;;;;6.22;5.63;;;;;;;26.63;92.28;99661.69;4815799;29;20069;-80
2023/06/24 06:47:03;;;;;;;6.50;5.10;;;;;;;27.02;91.78;99658.03;4833295;29;20122;-81
2023/06/24 06:49:48;;;;;;;7.15;5.18;;;;;;;26.82;91.44;99656.34;4818997;29;20526;-78
2023/06/24 06:52:31;;;;;;;6.53;5.43;;;;;;;26.62;91.93;99671.66;4841760;29;20095;-83
2023/06/24 06:55:16;;;;;;;8.48;5.78;;;;;;;26.45;92.43;99663.22;4833211;29;20052;-80
2023/06/24 06:58:00;;;;;;;7.68;5.68;;;;;;;26.79;92.22;99667.69;4837524;29;20511;-82
2023/06/24 07:00:44;;;;;;;6.95;6.13;;;;;;;26.91;92.08;99673.50;4839386;29;20526;-81
2023/06/24 07:03:28;;;;;;;7.07;5.65;;;;;;;26.94;90.85;99678.31;4836463;29;20142;-81
2023/06/24 07:06:13;;;;;;;5.47;4.93;;;;;;;27.04;91.10;99672.00;4831690;29;20105;-83
2023/06/24 07:08:57;;;;;;;6.40;5.78;;;;;;;26.57;91.46;99676.28;4838271;29;20137;-83
2023/06/24 07:11:41;;;;;;;8.52;5.90;;;;;;;26.64;92.20;99677.56;4842020;29;20102;-86
2023/06/24 07:14:25;;;;;;;7.38;5.25;;;;;;;26.60;91.92;99679.22;4838022;29;20060;-84
2023/06/24 07:17:09;;;;;;;6.38;5.30;;;;;;;26.42;92.25;99682.63;4827156;29;20048;-84
2023/06/24 07:19:54;;;;;;;8.07;5.57;;;;;;;26.89;92.53;99681.06;4839779;29;20381;-82
2023/06/24 07:22:41;;;;;;;6.50;5.10;;;;;;;27.14;90.55;99698.00;4826723;29;20090;-80
2023/06/24 07:25:26;;;;;;;7.53;5.65;;;;;;;27.50;89.04;99700.19;4837468;29;20078;-81
2023/06/24 07:28:10;;;;;;;7.05;5.45;;;;;;;27.65;89.16;99699.22;4839022;29;20069;-82
2023/06/24 07:30:55;;;;;;;5.60;4.80;;;;;;;27.00;88.59;99697.09;4836328;29;20150;-82
2023/06/24 07:33:39;;;;;;;6.85;4.97;;;;;;;27.33;88.22;99706.09;4825910;29;20622;-82
2023/06/24 07:36:23;;;;;;;6.57;5.07;;;;;;;27.60;87.84;99693.09;4840242;29;20102;-81
2023/06/24 07:39:07;;;;;;;7.35;4.45;;;;;;;27.55;87.34;99690.47;4838969;29;20557;-81
2023/06/24 07:41:51;;;;;;;4.68;3.95;;;;;;;28.01;87.06;99692.44;4837109;29;20523;-80
2023/06/24 07:44:37;;;;;;;4.38;3.97;;;;;;;27.96;86.60;99699.81;4834154;29;20515;-79
2023/06/24 07:47:21;;;;;;;5.38;4.57;;;;;;;28.10;86.21;99703.34;4833821;29;20190;-79
2023/06/24 07:50:06;;;;;;;5.80;4.43;;;;;;;27.99;86.52;99705.44;4818107;29;20561;-83
2023/06/24 07:52:50;;;;;;;6.47;5.00;;;;;;;28.19;86.81;99711.59;4839386;29;20528;-84
2023/06/24 07:55:34;;;;;;;5.72;5.03;;;;;;;28.67;85.37;99718.56;4839781;29;20074;-89
2023/06/24 07:58:21;;;;;;;6.10;4.90;;;;;;;29.11;83.20;99710.19;4837519;29;20134;-89
2023/06/24 08:01:05;;;;;;;5.45;4.28;;;;;;;29.40;82.71;99717.91;4827696;29;20057;-89
2023/06/24 08:03:50;;;;;;;5.32;3.67;;;;;;;29.66;81.10;99722.00;4841909;29;20095;-85
2023/06/24 08:06:34;;;;;;;6.07;4.82;;;;;;;30.22;80.64;99711.72;4828248;29;20144;-84
2023/06/24 08:09:18;;;;;;;4.57;3.80;;;;;;;30.38;79.43;99722.97;4840148;29;20140;-84
2023/06/24 08:12:04;;;;;;;4.15;3.63;;;;;;;30.42;78.02;99715.00;4839957;29;20049;-84
2023/06/24 08:14:49;;;;;;;4.00;3.33;;;;;;;30.37;78.55;99731.38;4839801;29;20523;-86
2023/06/24 08:17:33;;;;;;;3.50;3.20;;;;;;;30.42;77.87;99729.34;4841262;29;20109;-87
2023/06/24 08:20:17;;;;;;;3.35;3.05;;;;;;;30.73;76.19;99728.53;4837757;29;20534;-86
2023/06/24 08:23:01;;;;;;;3.15;2.85;;;;;;;30.91;76.01;99726.69;4837906;29;20045;-87
2023/06/24 08:25:45;;;;;;;4.50;3.10;;;;;;;30.97;74.52;99726.53;4836425;29;20498;-83
2023/06/24 08:28:29;;;;;;;3.30;3.00;;;;;;;30.85;74.56;99735.28;4838523;29;20433;-87
2023/06/24 08:31:14;;;;;;;5.05;3.40;;;;;;;30.97;75.30;99726.53;4839084;29;20547;-84
2023/06/24 08:34:06;;;;;;;3.40;3.10;;;;;;;31.36;74.31;99737.66;4826468;29;20053;-84
2023/06/24 08:36:50;;;;;;;3.33;3.03;;;;;;;30.94;74.12;99727.97;4838371;29;20090;-86
2023/06/24 08:39:34;;;;;;;3.33;3.03;;;;;;;30.92;74.65;99720.16;4839093;29;20118;-84
2023/06/24 08:42:18;;;;;;;3.28;3.08;;;;;;;31.19;74.43;99725.63;4836105;29;20499;-84
2023/06/24 08:45:03;;;;;;;3.63;3.33;;;;;;;30.97;74.59;99721.94;4838449;29;20098;-86
2023/06/24 08:47:49;;;;;;;3.97;3.17;;;;;;;31.62;73.13;99724.06;4838941;29;20417;-86
2023/06/24 08:50:43;;;;;;;4.05;3.22;;;;;;;31.61;72.78;99717.06;4839568;29;20056;-86
2023/06/24 08:53:28;;;;;;;3.60;3.17;;;;;;;31.71;71.72;99716.75;4835657;29;20067;-84
2023/06/24 08:56:13;;;;;;;4.18;3.40;;;;;;;31.41;71.70;99707.66;4826425;29;20400;-87
2023/06/24 08:58:58;;;;;;;4.07;3.35;;;;;;;31.66;71.70;99713.38;4841524;29;20078;-85
2023/06/24 09:01:42;;;;;;;5.68;3.35;;;;;;;31.96;70.64;99717.06;4825927;29;20037;-86
2023/06/24 09:04:26;;;;;;;4.10;3.63;;;;;;;32.18;70.47;99704.38;4841435;29;20140;-89
2023/06/24 09:07:11;;;;;;;3.92;3.58;;;;;;;32.54;69.19;99708.59;4829375;29;20089;-87
2023/06/24 09:09:56;;;;;;;3.88;3.58;;;;;;;32.52;68.92;99713.56;4840094;29;20110;-88
2023/06/24 09:12:40;;;;;;;4.28;3.58;;;;;;;32.41;68.13;99698.72;4829171;29;20519;-87
2023/06/24 09:15:24;;;;;;;4.68;3.40;;;;;;;32.26;67.30;99698.13;4843981;29;20189;-87
2023/06/24 09:18:10;;;;;;;7.10;3.80;;;;;;;32.03;68.37;99701.09;4828753;29;20420;-88
2023/06/24 09:20:54;;;;;;;4.88;3.17;;;;;;;32.04;67.98;99696.44;4827632;29;20125;-87
2023/06/24 09:23:39;;;;;;;4.65;3.55;;;;;;;32.59;67.48;99700.25;4842541;29;20053;-90
2023/06/24 09:26:25;;;;;;;4.50;3.35;;;;;;;32.90;68.95;99710.03;4837388;29;20093;-85
2023/06/24 09:29:13;;;;;;;4.78;2.97;;;;;;;32.94;67.09;99699.31;4815670;29;20102;-88
2023/06/24 09:31:59;;;;;;;4.70;3.35;;;;;;;33.35;66.14;99702.38;4826938;29;20114;-89
2023/06/24 09:34:43;;;;;;;6.78;3.10;;;;;;;33.74;66.42;99696.78;4842123;29;21328;-88
2023/06/24 09:37:30;;;;;;;5.22;3.28;;;;;;;33.53;66.13;99704.97;4840633;29;20077;-85
2023/06/24 09:40:15;;;;;;;5.32;3.72;;;;;;;33.36;65.33;99703.94;4839425;29;20072;-86
2023/06/24 09:43:02;;;;;;;4.10;3.70;;;;;;;33.25;65.82;99700.84;4841709;29;20076;-86
2023/06/24 09:45:49;;;;;;;4.80;3.67;;;;;;;33.04;66.19;99703.56;4828461;29;20162;-87
2023/06/24 09:48:33;;;;;;;3.67;3.22;;;;;;;32.77;66.18;99700.16;4825792;29;20089;-84
2023/06/24 09:51:18;;;;;;;3.40;3.10;;;;;;;32.71;66.36;99696.03;4820907;29;20413;-84
2023/06/24 09:54:07;;;;;;;3.85;3.00;;;;;;;32.40;65.45;99697.13;4825759;29;20573;-85
2023/06/24 09:56:54;;;;;;;3.22;2.92;;;;;;;32.70;65.30;99700.66;4824426;29;20511;-84
2023/06/24 09:59:39;;;;;;;3.97;2.95;;;;;;;33.01;65.12;99694.13;4839322;29;20161;-84
2023/06/24 10:02:23;;;;;;;4.82;2.85;;;;;;;32.98;65.05;99700.25;4822658;29;20044;-83
2023/06/24 10:05:08;;;;;;;5.40;2.85;;;;;;;33.43;65.12;99693.38;4836845;29;20049;-84
2023/06/24 10:07:52;;;;;;;3.83;3.15;;;;;;;33.33;64.61;99688.31;4840256;29;20418;-84
2023/06/24 10:10:36;;;;;;;3.28;2.97;;;;;;;33.43;64.27;99682.50;4833365;29;20095;-83
2023/06/24 10:13:20;;;;;;;3.25;2.92;;;;;;;33.49;63.59;99685.00;4839028;29;20076;-84
2023/06/24 10:16:04;;;;;;;3.58;3.13;;;;;;;32.93;63.71;99688.75;4841173;29;20106;-83
2023/06/24 10:18:49;;;;;;;3.28;2.97;;;;;;;32.76;64.20;99683.06;4829200;29;20504;-84
2023/06/24 10:21:52;;;;;;;4.32;2.90;;;;;;;32.50;65.53;99680.50;4842362;29;20473;-81
2023/06/24 10:24:42;;;;;;;5.25;2.92;;;;;;;32.47;64.55;99692.00;4830000;29;20048;-82
2023/06/24 10:27:27;;;;;;;7.05;3.30;;;;;;;32.68;64.30;99683.91;4840801;29;20041;-84
2023/06/24 10:30:23;;;;;;;2.78;2.58;;;;;;;32.87;62.43;99688.91;4827189;29;20060;-84
2023/06/24 10:33:10;;;;;;;2.70;2.50;;;;;;;33.78;62.58;99696.88;4829703;29;20110;-84
2023/06/24 10:35:54;;;;;;;2.80;2.50;;;;;;;34.24;61.09;99683.28;4838890;29;20374;-86
2023/06/24 10:38:38;;;;;;;3.00;2.70;;;;;;;34.06;61.04;99686.22;4841841;29;20080;-83
2023/06/24 10:41:23;;;;;;;2.85;2.60;;;;;;;35.05;61.10;99696.38;4842744;29;20106;-83
2023/06/24 10:44:17;;;;;;;3.15;2.40;;;;;;;35.41;59.07;99680.22;4839351;29;20040;-83
2023/06/24 10:47:02;;;;;;;4.03;2.55;;;;;;;35.66;57.83;99680.13;4843763;29;20056;-83
2023/06/24 10:49:46;;;;;;;6.80;2.72;;;;;;;35.62;58.23;99669.13;4842945;29;20090;-85
2023/06/24 10:52:30;;;;;;;3.00;2.80;;;;;;;35.40;58.50;99679.44;4824546;29;20056;-82
2023/06/24 10:55:16;;;;;;;3.08;2.78;;;;;;;35.26;59.31;99681.75;4841797;29;20088;-83
2023/06/24 10:58:12;;;;;;;3.05;2.75;;;;;;;35.40;58.98;99679.44;4827905;29;20060;-84
2023/06/24 11:01:07;;;;;;;4.05;2.40;;;;;;;35.38;57.67;99681.72;4828263;29;20044;-82
2023/06/24 11:03:51;;;;;;;3.17;2.60;;;;;;;35.04;59.20;99678.41;4826332;29;20068;-84
2023/06/24 11:06:35;;;;;;;2.70;2.50;;;;;;;34.29;59.96;99678.41;4840054;29;20106;-81
2023/06/24 11:09:19;;;;;;;2.50;2.30;;;;;;;33.51;61.51;99683.56;4823751;29;20056;-82
2023/06/24 11:12:04;;;;;;;3.40;2.42;;;;;;;33.29;61.25;99681.94;4825188;29;20416;-80
2023/06/24 11:14:48;;;;;;;4.38;2.17;;;;;;;33.09;61.25;99691.69;4835746;29;20097;-81
2023/06/24 11:17:36;;;;;;;4.88;2.30;;;;;;;33.34;61.26;99692.59;4839074;29;20092;-84
2023/06/24 11:20:20;;;;;;;3.70;2.40;;;;;;;33.90;61.10;99688.75;4841807;29;20098;-82
2023/06/24 11:23:09;;;;;;;2.75;2.20;;;;;;;34.26;60.24;99679.09;4840202;29;20081;-84
2023/06/24 11:25:56;;;;;;;2.47;2.28;;;;;;;34.60;59.00;99688.00;4841109;29;20177;-83
2023/06/24 11:28:43;;;;;;;4.07;2.10;;;;;;;34.62;58.96;99686.84;4824145;29;20060;-84
2023/06/24 11:31:28;;;;;;;2.38;2.20;;;;;;;34.61;59.30;99680.59;4840807;29;20485;-83
2023/06/24 11:34:12;;;;;;;3.58;2.88;;;;;;;34.57;58.94;99682.44;4842782;29;20041;-83
2023/06/24 11:36:57;;;;;;;3.65;1.80;;;;;;;33.65;58.70;99688.69;4842283;29;20464;-84
2023/06/24 11:39:41;;;;;;;2.33;2.13;;;;;;;34.46;58.10;99676.59;4843369;29;20122;-85
2023/06/24 11:42:25;;;;;;;1.73;1.63;;;;;;;34.72;57.82;99680.94;4841722;29;20052;-83
2023/06/24 11:45:11;;;;;;;3.20;2.10;;;;;;;34.64;57.92;99674.47;4836964;29;20157;-82
2023/06/24 11:48:04;;;;;;;2.28;1.77;;;;;;;34.29;58.29;99667.50;4841109;29;21168;-83
2023/06/24 11:50:55;;;;;;;2.28;2.17;;;;;;;34.59;58.06;99661.88;4837579;29;20073;-87
2023/06/24 11:53:43;;;;;;;3.08;1.88;;;;;;;34.92;58.17;99662.84;4840595;29;20102;-86
2023/06/24 11:56:41;;;;;;;2.38;2.20;;;;;;;34.86;56.83;99651.38;4838949;29;20422;-85
2023/06/24 11:59:27;;;;;;;2.00;1.90;;;;;;;34.84;56.71;99656.38;4839853;29;20405;-87
2023/06/24 12:02:13;;;;;;;3.08;2.10;;;;;;;34.93;56.80;99663.63;4838797;29;20053;-87
2023/06/24 12:04:57;;;;;;;2.25;2.10;;;;;;;34.55;56.41;99657.44;4839544;29;20090;-88
2023/06/24 12:07:41;;;;;;;2.15;1.98;;;;;;;34.26;57.46;99659.22;4839784;29;20080;-87
2023/06/24 12:10:27;;;;;;;2.45;1.90;;;;;;;33.95;57.51;99642.25;4824337;29;20114;-85
2023/06/24 12:13:11;;;;;;;2.58;2.05;;;;;;;34.08;57.50;99647.75;4826452;29;20098;-87
2023/06/24 12:15:55;;;;;;;2.00;1.90;;;;;;;33.30;57.86;99640.78;4838476;29;20207;-86
2023/06/24 12:18:39;;;;;;;2.50;2.30;;;;;;;33.65;57.43;99653.31;4839263;29;20465;-87
2023/06/24 12:21:23;;;;;;;2.10;1.90;;;;;;;33.59;58.15;99662.81;4837245;29;20569;-88
2023/06/24 12:24:08;;;;;;;2.90;1.90;;;;;;;33.81;57.07;99652.69;4840278;29;20098;-86
2023/06/24 12:26:52;;;;;;;2.63;2.13;;;;;;;34.18;57.54;99655.47;4840474;29;20099;-87
2023/06/24 12:29:36;;;;;;;4.03;2.10;;;;;;;34.57;55.68;99647.78;4840292;29;20516;-87
2023/06/24 12:32:20;;;;;;;2.15;1.92;;;;;;;34.29;56.67;99648.44;4824983;29;20468;-88
2023/06/24 12:35:05;;;;;;;3.70;2.10;;;;;;;34.21;55.06;99654.00;4839301;29;20065;-87
2023/06/24 12:37:49;;;;;;;2.10;1.95;;;;;;;33.32;55.73;99659.50;4826488;29;20098;-86
2023/06/24 12:40:33;;;;;;;5.30;2.20;;;;;;;32.77;57.51;99656.66;4838856;29;20114;-86
2023/06/24 12:43:17;;;;;;;2.45;2.10;;;;;;;33.08;56.98;99647.38;4839479;29;20102;-86
2023/06/24 12:46:01;;;;;;;3.55;2.13;;;;;;;32.39;56.48;99658.31;4838997;29;20521;-84
2023/06/24 12:48:45;;;;;;;2.67;2.22;;;;;;;33.02;58.06;99652.22;4835335;29;20424;-87
2023/06/24 12:51:29;;;;;;;2.55;2.35;;;;;;;33.13;55.88;99658.06;4839148;29;20056;-87
2023/06/24 12:54:13;;;;;;;3.20;2.00;;;;;;;33.13;55.77;99652.63;4826368;29;20102;-88
2023/06/24 12:56:57;;;;;;;2.38;2.17;;;;;;;33.81;54.98;99636.34;4825950;29;20056;-87